createdAt,value
2023-05-09T00:02:02.192Z,100.00
2023-05-09T00:04:32.746Z,100.00
2023-05-09T00:07:00.877Z,100.00
2023-05-09T00:09:28.913Z,100.00
2023-05-09T00:11:56.872Z,100.00
2023-05-09T00:14:24.941Z,100.00
2023-05-09T00:16:53.750Z,100.00
2023-05-09T00:19:21.818Z,100.00
2023-05-09T00:21:51.129Z,100.00
2023-05-09T00:24:19.007Z,100.00
2023-05-09T00:26:46.929Z,100.00
2023-05-09T00:29:14.854Z,100.00
2023-05-09T00:31:42.770Z,100.00
2023-05-09T00:34:11.051Z,100.00
2023-05-09T00:36:39.005Z,100.00
2023-05-09T00:39:08.700Z,100.00
2023-05-09T00:41:36.726Z,100.00
2023-05-09T00:44:04.667Z,100.00
2023-05-09T00:46:32.614Z,100.00
2023-05-09T00:49:00.677Z,100.00
2023-05-09T00:51:29.368Z,100.00
2023-05-09T00:53:57.283Z,100.00
2023-05-09T00:56:27.547Z,100.00
2023-05-09T00:58:55.757Z,100.00
2023-05-09T01:01:23.939Z,100.00
2023-05-09T01:03:52.250Z,100.00
2023-05-09T01:06:25.084Z,100.00
2023-05-09T01:08:56.201Z,100.00
2023-05-09T01:11:30.788Z,100.00
2023-05-09T01:14:04.421Z,100.00
2023-05-09T01:16:36.304Z,100.00
2023-05-09T01:19:16.028Z,100.00
2023-05-09T01:21:45.763Z,100.00
2023-05-09T01:24:23.968Z,100.00
2023-05-09T01:27:04.819Z,100.00
2023-05-09T01:29:38.590Z,100.00
2023-05-09T01:32:09.822Z,100.00
2023-05-09T01:34:39.802Z,100.00
2023-05-09T01:37:08.476Z,100.00
2023-05-09T01:39:40.137Z,100.00
2023-05-09T01:42:09.840Z,100.00
2023-05-09T01:44:42.492Z,100.00
2023-05-09T01:47:11.059Z,100.00
2023-05-09T01:49:39.900Z,100.00
2023-05-09T01:52:10.284Z,100.00
2023-05-09T01:54:40.030Z,100.00
2023-05-09T01:57:09.100Z,100.00
2023-05-09T01:59:41.667Z,100.00
2023-05-09T02:02:09.625Z,100.00
2023-05-09T02:04:37.787Z,100.00
2023-05-09T02:07:06.263Z,100.00
2023-05-09T02:09:34.156Z,100.00
2023-05-09T02:12:02.137Z,100.00
2023-05-09T02:14:30.856Z,100.00
2023-05-09T02:17:06.221Z,100.00
2023-05-09T02:19:35.709Z,100.00
2023-05-09T02:22:04.933Z,100.00
2023-05-09T02:24:33.744Z,100.00
2023-05-09T02:27:02.635Z,100.00
2023-05-09T02:29:38.573Z,100.00
2023-05-09T02:32:09.623Z,100.00
2023-05-09T02:34:38.343Z,100.00
2023-05-09T02:37:06.551Z,100.00
2023-05-09T02:39:36.187Z,100.00
2023-05-09T02:42:08.800Z,100.00
2023-05-09T02:44:36.790Z,100.00
2023-05-09T02:47:05.862Z,100.00
2023-05-09T02:49:35.654Z,100.00
2023-05-09T02:52:06.081Z,100.00
2023-05-09T02:54:34.076Z,100.00
2023-05-09T02:57:02.228Z,100.00
2023-05-09T02:59:30.383Z,100.00
2023-05-09T03:02:01.641Z,100.00
2023-05-09T03:04:30.832Z,100.00
2023-05-09T03:07:00.158Z,100.00
2023-05-09T03:09:32.365Z,100.00
2023-05-09T03:12:00.462Z,100.00
2023-05-09T03:14:28.408Z,100.00
2023-05-09T03:16:56.303Z,100.00
2023-05-09T03:19:33.682Z,100.00
2023-05-09T03:22:03.242Z,100.00
2023-05-09T03:24:34.800Z,100.00
2023-05-09T03:27:03.804Z,100.00
2023-05-09T03:29:31.855Z,100.00
2023-05-09T03:32:00.250Z,100.00
2023-05-09T03:34:28.200Z,100.00
2023-05-09T03:36:56.302Z,100.00
2023-05-09T03:39:25.869Z,100.00
2023-05-09T03:41:57.628Z,100.00
2023-05-09T03:44:25.818Z,100.00
2023-05-09T03:46:55.608Z,100.00
2023-05-09T03:49:24.075Z,100.00
2023-05-09T03:51:54.687Z,100.00
2023-05-09T03:54:22.637Z,100.00
2023-05-09T03:56:53.301Z,100.00
2023-05-09T03:59:21.420Z,100.00
2023-05-09T04:01:49.482Z,100.00
2023-05-09T04:04:18.653Z,100.00
2023-05-09T04:06:46.570Z,100.00
2023-05-09T04:09:17.096Z,100.00
2023-05-09T04:11:46.665Z,100.00
2023-05-09T04:14:17.676Z,100.00
2023-05-09T04:16:46.052Z,100.00
2023-05-09T04:19:14.445Z,100.00
2023-05-09T04:21:42.375Z,100.00
2023-05-09T04:24:11.688Z,100.00
2023-05-09T04:26:43.759Z,100.00
2023-05-09T04:29:17.573Z,100.00
2023-05-09T04:31:51.409Z,100.00
2023-05-09T04:34:20.663Z,100.00
2023-05-09T04:36:49.087Z,100.00
2023-05-09T04:39:17.383Z,100.00
2023-05-09T04:41:54.636Z,100.00
2023-05-09T04:44:24.969Z,100.00
2023-05-09T04:46:55.121Z,100.00
2023-05-09T04:49:23.001Z,100.00
2023-05-09T04:51:51.768Z,100.00
2023-05-09T04:54:19.656Z,100.00
2023-05-09T04:56:50.149Z,100.00
2023-05-09T04:59:19.059Z,100.00
2023-05-09T05:01:49.220Z,100.00
2023-05-09T05:04:17.790Z,100.00
2023-05-09T05:06:45.847Z,100.00
2023-05-09T05:09:14.120Z,100.00
2023-05-09T05:11:50.247Z,100.00
2023-05-09T05:14:26.707Z,100.00
2023-05-09T05:16:56.599Z,100.00
2023-05-09T05:19:25.623Z,100.00
2023-05-09T05:21:53.621Z,100.00
2023-05-09T05:24:21.846Z,100.00
2023-05-09T05:26:49.876Z,100.00
2023-05-09T05:29:18.114Z,100.00
2023-05-09T05:31:46.474Z,100.00
2023-05-09T05:34:16.856Z,100.00
2023-05-09T05:36:47.718Z,100.00
2023-05-09T05:39:15.634Z,100.00
2023-05-09T05:41:43.517Z,100.00
2023-05-09T05:44:12.182Z,100.00
2023-05-09T05:46:40.173Z,100.00
2023-05-09T05:49:08.437Z,100.00
2023-05-09T05:51:38.490Z,100.00
2023-05-09T05:54:07.849Z,100.00
2023-05-09T05:56:37.711Z,100.00
2023-05-09T05:59:06.293Z,100.00
2023-05-09T06:01:34.225Z,100.00
2023-05-09T06:04:02.227Z,100.00
2023-05-09T06:06:32.579Z,100.00
2023-05-09T06:09:01.920Z,100.00
2023-05-09T06:11:29.891Z,100.00
2023-05-09T06:13:57.846Z,100.00
2023-05-09T06:16:25.824Z,100.00
2023-05-09T06:18:55.921Z,100.00
2023-05-09T06:21:24.201Z,98.68
2023-05-09T06:24:06.630Z,95.05
2023-05-09T06:26:40.553Z,97.33
2023-05-09T06:29:09.948Z,95.32
2023-05-09T06:31:38.973Z,94.37
2023-05-09T06:34:07.294Z,93.78
2023-05-09T06:36:35.273Z,90.13
2023-05-09T06:39:03.343Z,89.66
2023-05-09T06:41:31.233Z,87.21
2023-05-09T06:44:02.505Z,82.49
2023-05-09T06:46:30.501Z,83.76
2023-05-09T06:48:58.504Z,82.79
2023-05-09T06:51:27.149Z,84.40
2023-05-09T06:53:55.064Z,84.22
2023-05-09T06:56:23.444Z,83.42
2023-05-09T06:58:51.639Z,83.96
2023-05-09T07:01:20.885Z,80.73
2023-05-09T07:03:49.297Z,80.36
2023-05-09T07:06:17.655Z,76.61
2023-05-09T07:08:46.013Z,74.14
2023-05-09T07:11:13.950Z,74.04
2023-05-09T07:13:41.867Z,75.41
2023-05-09T07:16:09.728Z,73.24
2023-05-09T07:18:39.299Z,70.98
2023-05-09T07:21:07.724Z,72.91
2023-05-09T07:23:35.571Z,73.94
2023-05-09T07:26:03.636Z,73.03
2023-05-09T07:28:31.832Z,69.86
2023-05-09T07:30:59.789Z,71.53
2023-05-09T07:33:27.847Z,67.23
2023-05-09T07:35:57.145Z,64.89
2023-05-09T07:38:25.133Z,64.08
2023-05-09T07:40:53.262Z,61.83
2023-05-09T07:43:21.444Z,62.42
2023-05-09T07:45:49.327Z,62.60
2023-05-09T07:48:17.260Z,59.81
2023-05-09T07:50:47.343Z,61.01
2023-05-09T07:53:16.621Z,59.38
2023-05-09T07:55:47.580Z,57.91
2023-05-09T07:58:15.747Z,56.23
2023-05-09T08:00:43.786Z,57.27
2023-05-09T08:03:12.187Z,57.61
2023-05-09T08:05:40.832Z,56.68
2023-05-09T08:08:08.827Z,54.11
2023-05-09T08:10:38.061Z,56.92
2023-05-09T08:13:06.030Z,54.99
2023-05-09T08:15:33.947Z,55.65
2023-05-09T08:18:01.907Z,54.30
2023-05-09T08:20:31.551Z,54.72
2023-05-09T08:22:59.552Z,53.37
2023-05-09T08:25:27.528Z,53.13
2023-05-09T08:27:56.988Z,53.01
2023-05-09T08:30:24.902Z,53.28
2023-05-09T08:32:54.140Z,52.45
2023-05-09T08:35:22.019Z,51.58
2023-05-09T08:37:49.938Z,51.04
2023-05-09T08:40:18.731Z,52.15
2023-05-09T08:42:46.915Z,51.71
2023-05-09T08:45:17.690Z,52.17
2023-05-09T08:47:45.867Z,51.00
2023-05-09T08:50:15.544Z,49.53
2023-05-09T08:52:44.055Z,49.08
2023-05-09T08:55:12.768Z,46.88
2023-05-09T08:57:41.152Z,47.44
2023-05-09T09:00:11.435Z,47.08
2023-05-09T09:02:42.988Z,47.70
2023-05-09T09:05:23.880Z,44.99
2023-05-09T09:07:59.129Z,46.01
2023-05-09T09:10:28.216Z,46.38
2023-05-09T09:12:57.591Z,46.97
2023-05-09T09:15:28.783Z,45.15
2023-05-09T09:18:01.186Z,46.29
2023-05-09T09:20:32.475Z,45.57
2023-05-09T09:23:02.071Z,44.09
2023-05-09T09:25:29.994Z,43.50
2023-05-09T09:27:57.861Z,44.40
2023-05-09T09:30:26.672Z,43.71
2023-05-09T09:32:54.707Z,44.73
2023-05-09T09:35:24.910Z,42.92
2023-05-09T09:37:59.752Z,45.22
2023-05-09T09:40:28.160Z,43.17
2023-05-09T09:42:56.047Z,43.44
2023-05-09T09:45:24.042Z,43.23
2023-05-09T09:47:52.004Z,43.66
2023-05-09T09:50:23.284Z,43.10
2023-05-09T09:52:55.634Z,41.19
2023-05-09T09:55:24.605Z,42.68
2023-05-09T09:57:52.845Z,40.71
2023-05-09T10:00:27.354Z,41.34
2023-05-09T10:02:56.839Z,39.87
2023-05-09T10:05:25.599Z,38.83
2023-05-09T10:07:59.592Z,39.57
2023-05-09T10:10:28.900Z,38.54
2023-05-09T10:12:58.363Z,39.75
2023-05-09T10:15:27.708Z,39.00
2023-05-09T10:17:58.576Z,37.56
2023-05-09T10:20:27.029Z,38.73
2023-05-09T10:22:57.676Z,37.77
2023-05-09T10:25:29.585Z,36.88
2023-05-09T10:28:01.685Z,36.18
2023-05-09T10:30:34.163Z,37.58
2023-05-09T10:33:04.783Z,37.00
2023-05-09T10:35:38.449Z,35.79
2023-05-09T10:38:09.986Z,35.25
2023-05-09T10:40:39.347Z,34.84
2023-05-09T10:43:08.321Z,35.91
2023-05-09T10:45:36.810Z,34.39
2023-05-09T10:48:09.011Z,35.36
2023-05-09T10:50:37.822Z,34.97
2023-05-09T10:53:08.384Z,36.32
2023-05-09T10:55:40.945Z,34.56
2023-05-09T10:58:20.598Z,34.55
2023-05-09T11:00:49.201Z,34.74
2023-05-09T11:03:19.167Z,35.72
2023-05-09T11:05:47.581Z,35.93
2023-05-09T11:08:27.296Z,36.26
2023-05-09T11:10:56.047Z,36.03
2023-05-09T11:13:25.565Z,33.31
2023-05-09T11:16:12.832Z,33.38
2023-05-09T11:18:58.660Z,33.95
2023-05-09T11:21:27.616Z,32.73
2023-05-09T11:23:56.928Z,32.75
2023-05-09T11:26:30.369Z,33.81
2023-05-09T11:29:02.765Z,34.04
2023-05-09T11:31:30.770Z,32.84
2023-05-09T11:34:04.956Z,33.02
2023-05-09T11:36:34.074Z,33.47
2023-05-09T11:39:06.315Z,33.97
2023-05-09T11:41:40.780Z,34.56
2023-05-09T11:44:18.958Z,35.07
2023-05-09T11:46:47.371Z,35.11
2023-05-09T11:49:15.498Z,34.26
2023-05-09T11:51:43.940Z,36.27
2023-05-09T11:54:14.986Z,36.93
2023-05-09T11:56:43.259Z,35.90
2023-05-09T11:59:13.291Z,34.67
2023-05-09T12:01:41.307Z,35.19
2023-05-09T12:04:09.362Z,33.81
2023-05-09T12:06:37.808Z,34.37
2023-05-09T12:09:06.222Z,34.82
2023-05-09T12:11:37.112Z,35.98
2023-05-09T12:14:05.458Z,35.59
2023-05-09T12:16:33.469Z,35.62
2023-05-09T12:19:01.589Z,35.96
2023-05-09T12:21:29.627Z,36.88
2023-05-09T12:23:57.714Z,37.44
2023-05-09T12:26:25.697Z,37.23
2023-05-09T12:28:55.361Z,36.39
2023-05-09T12:31:23.638Z,37.20
2023-05-09T12:33:51.998Z,35.87
2023-05-09T12:36:20.298Z,34.74
2023-05-09T12:38:54.919Z,36.32
2023-05-09T12:41:37.029Z,35.73
2023-05-09T12:44:08.982Z,36.06
2023-05-09T12:46:37.666Z,38.02
2023-05-09T12:49:05.902Z,36.14
2023-05-09T12:51:33.947Z,37.07
2023-05-09T12:54:05.340Z,37.62
2023-05-09T12:56:35.595Z,35.56
2023-05-09T12:59:10.930Z,35.66
2023-05-09T13:01:40.328Z,36.00
2023-05-09T13:04:09.546Z,36.67
2023-05-09T13:06:49.126Z,36.07
2023-05-09T13:09:17.159Z,35.15
2023-05-09T13:11:45.552Z,33.94
2023-05-09T13:14:13.600Z,35.18
2023-05-09T13:16:43.062Z,35.03
2023-05-09T13:19:11.442Z,36.53
2023-05-09T13:21:39.326Z,36.46
2023-05-09T13:24:07.858Z,36.94
2023-05-09T13:26:35.765Z,36.61
2023-05-09T13:29:03.709Z,36.77
2023-05-09T13:31:31.706Z,36.02
2023-05-09T13:34:00.982Z,36.42
2023-05-09T13:36:28.888Z,37.72
2023-05-09T13:38:56.836Z,38.10
2023-05-09T13:41:25.023Z,36.54
2023-05-09T13:43:53.080Z,37.84
2023-05-09T13:46:21.181Z,37.32
2023-05-09T13:48:49.218Z,37.28
2023-05-09T13:51:18.621Z,37.39
2023-05-09T13:53:46.707Z,36.45
2023-05-09T13:56:14.672Z,36.12
2023-05-09T13:58:42.602Z,36.08
2023-05-09T14:01:10.615Z,36.27
2023-05-09T14:03:39.683Z,35.71
2023-05-09T14:06:09.333Z,34.78
2023-05-09T14:08:39.670Z,36.80
2023-05-09T14:11:08.959Z,33.97
2023-05-09T14:13:37.118Z,34.12
2023-05-09T14:16:06.105Z,35.74
2023-05-09T14:18:34.050Z,35.25
2023-05-09T14:21:02.144Z,35.94
2023-05-09T14:23:30.533Z,36.65
2023-05-09T14:25:59.988Z,36.86
2023-05-09T14:28:28.197Z,36.52
2023-05-09T14:30:57.346Z,37.24
2023-05-09T14:33:27.151Z,36.74
2023-05-09T14:35:55.107Z,38.07
2023-05-09T14:38:23.108Z,38.57
2023-05-09T14:40:51.229Z,38.66
2023-05-09T14:43:22.287Z,38.62
2023-05-09T14:45:50.237Z,38.68
2023-05-09T14:48:18.735Z,38.11
2023-05-09T14:50:46.656Z,36.85
2023-05-09T14:53:14.536Z,37.44
2023-05-09T14:55:42.513Z,38.65
2023-05-09T14:58:13.356Z,39.17
2023-05-09T15:00:42.885Z,40.46
2023-05-09T15:03:15.582Z,39.46
2023-05-09T15:05:43.347Z,40.29
2023-05-09T15:08:11.291Z,38.30
2023-05-09T15:10:39.527Z,39.83
2023-05-09T15:13:07.569Z,39.42
2023-05-09T15:15:38.405Z,40.05
2023-05-09T15:18:10.307Z,39.97
2023-05-09T15:20:38.316Z,39.48
2023-05-09T15:23:06.714Z,40.08
2023-05-09T15:25:34.950Z,38.99
2023-05-09T15:28:03.053Z,39.58
2023-05-09T15:30:31.244Z,38.93
2023-05-09T15:32:59.413Z,39.63
2023-05-09T15:35:28.922Z,40.20
2023-05-09T15:37:57.061Z,40.50
2023-05-09T15:40:25.381Z,39.22
2023-05-09T15:42:53.505Z,39.59
2023-05-09T15:45:21.479Z,39.33
2023-05-09T15:47:49.553Z,40.61
2023-05-09T15:50:17.779Z,40.98
2023-05-09T15:52:47.460Z,41.29
2023-05-09T15:55:16.257Z,41.06
2023-05-09T15:57:45.222Z,39.73
2023-05-09T16:00:16.620Z,41.62
2023-05-09T16:02:45.071Z,40.76
2023-05-09T16:05:13.078Z,41.29
2023-05-09T16:07:44.708Z,40.46
2023-05-09T16:10:14.204Z,41.43
2023-05-09T16:12:42.292Z,41.68
2023-05-09T16:15:11.525Z,42.35
2023-05-09T16:17:39.420Z,42.68
2023-05-09T16:20:08.636Z,42.55
2023-05-09T16:22:36.568Z,42.11
2023-05-09T16:25:04.552Z,41.86
2023-05-09T16:27:33.829Z,43.32
2023-05-09T16:30:03.070Z,42.73
2023-05-09T16:32:31.292Z,42.75
2023-05-09T16:34:59.538Z,43.52
2023-05-09T16:37:29.204Z,43.38
2023-05-09T16:39:57.905Z,43.68
2023-05-09T16:42:27.417Z,43.97
2023-05-09T16:45:15.554Z,44.14
2023-05-09T16:47:46.919Z,44.08
2023-05-09T16:50:16.597Z,44.29
2023-05-09T16:52:45.243Z,45.06
2023-05-09T16:55:16.706Z,44.89
2023-05-09T16:57:48.106Z,44.50
2023-05-09T17:00:25.060Z,46.11
2023-05-09T17:02:55.668Z,46.23
2023-05-09T17:05:24.075Z,45.45
2023-05-09T17:07:52.386Z,46.10
2023-05-09T17:10:21.043Z,45.76
2023-05-09T17:12:49.204Z,46.50
2023-05-09T17:15:19.446Z,47.03
2023-05-09T17:17:47.985Z,47.40
2023-05-09T17:20:16.639Z,47.32
2023-05-09T17:22:46.321Z,47.51
2023-05-09T17:25:15.156Z,47.42
2023-05-09T17:27:43.157Z,46.83
2023-05-09T17:30:11.519Z,47.73
2023-05-09T17:32:41.918Z,47.77
2023-05-09T17:35:11.300Z,48.23
2023-05-09T17:37:39.603Z,47.87
2023-05-09T17:40:08.579Z,48.87
2023-05-09T17:42:36.782Z,48.07
2023-05-09T17:45:05.487Z,47.87
2023-05-09T17:47:33.897Z,47.88
2023-05-09T17:50:03.287Z,47.70
2023-05-09T17:52:32.377Z,48.79
2023-05-09T17:55:01.839Z,49.97
2023-05-09T17:57:29.802Z,48.26
2023-05-09T17:59:58.338Z,50.24
2023-05-09T18:02:26.523Z,48.80
2023-05-09T18:04:55.270Z,48.41
2023-05-09T18:07:25.291Z,48.40
2023-05-09T18:09:53.276Z,49.27
2023-05-09T18:12:21.586Z,49.33
2023-05-09T18:14:49.499Z,49.42
2023-05-09T18:17:18.464Z,48.65
2023-05-09T18:19:46.348Z,49.41
2023-05-09T18:22:15.708Z,49.58
2023-05-09T18:24:44.985Z,49.66
2023-05-09T18:27:13.022Z,50.62
2023-05-09T18:29:40.952Z,51.33
2023-05-09T18:32:09.068Z,51.46
2023-05-09T18:34:36.947Z,52.27
2023-05-09T18:37:05.031Z,51.60
2023-05-09T18:39:32.942Z,51.73
2023-05-09T18:42:02.288Z,51.99
2023-05-09T18:44:30.502Z,51.44
2023-05-09T18:46:58.852Z,51.14
2023-05-09T18:49:27.576Z,51.63
2023-05-09T18:51:56.528Z,51.91
2023-05-09T18:54:25.147Z,52.04
2023-05-09T18:56:53.255Z,52.17
2023-05-09T18:59:23.570Z,53.19
2023-05-09T19:01:51.751Z,53.80
2023-05-09T19:04:19.968Z,54.93
2023-05-09T19:06:48.466Z,54.53
2023-05-09T19:09:16.661Z,54.98
2023-05-09T19:11:45.137Z,54.47
2023-05-09T19:14:13.036Z,54.43
2023-05-09T19:16:42.430Z,55.54
2023-05-09T19:19:10.829Z,55.96
2023-05-09T19:21:38.787Z,55.87
2023-05-09T19:24:07.394Z,55.80
2023-05-09T19:26:35.389Z,57.12
2023-05-09T19:29:08.075Z,57.92
2023-05-09T19:31:37.217Z,58.00
2023-05-09T19:34:06.456Z,58.12
2023-05-09T19:36:34.814Z,60.69
2023-05-09T19:39:02.871Z,60.10
2023-05-09T19:41:30.768Z,59.70
2023-05-09T19:43:59.451Z,60.67
2023-05-09T19:46:27.468Z,61.68
2023-05-09T19:48:55.382Z,66.08
2023-05-09T19:51:24.635Z,66.52
2023-05-09T19:53:52.540Z,68.82
2023-05-09T19:56:20.706Z,71.86
2023-05-09T19:58:49.722Z,72.53
2023-05-09T20:01:19.008Z,75.33
2023-05-09T20:03:50.245Z,74.95
2023-05-09T20:06:18.377Z,79.13
2023-05-09T20:08:47.730Z,78.63
2023-05-09T20:11:15.732Z,81.13
2023-05-09T20:13:44.848Z,79.95
2023-05-09T20:16:12.848Z,79.62
2023-05-09T20:18:40.750Z,80.33
2023-05-09T20:21:09.824Z,80.77
2023-05-09T20:23:38.172Z,82.74
2023-05-09T20:26:07.443Z,80.34
2023-05-09T20:28:35.359Z,80.45
2023-05-09T20:31:04.372Z,80.33
2023-05-09T20:33:32.270Z,81.91
2023-05-09T20:36:00.846Z,82.75
2023-05-09T20:38:28.868Z,83.77
2023-05-09T20:40:56.792Z,83.08
2023-05-09T20:43:26.179Z,82.13
2023-05-09T20:45:54.259Z,80.34
2023-05-09T20:48:23.635Z,84.32
2023-05-09T20:50:51.511Z,83.58
2023-05-09T20:53:19.425Z,81.44
2023-05-09T20:55:49.583Z,81.63
2023-05-09T20:58:18.284Z,84.23
2023-05-09T21:00:48.523Z,84.09
2023-05-09T21:03:17.177Z,84.47
2023-05-09T21:05:45.130Z,83.85
2023-05-09T21:08:13.005Z,86.60
2023-05-09T21:10:41.245Z,86.56
2023-05-09T21:13:09.513Z,86.16
2023-05-09T21:15:37.468Z,85.15
2023-05-09T21:18:07.003Z,86.88
2023-05-09T21:20:34.957Z,88.13
2023-05-09T21:23:02.850Z,89.12
2023-05-09T21:25:30.729Z,89.60
2023-05-09T21:27:58.575Z,87.55
2023-05-09T21:30:26.448Z,90.48
2023-05-09T21:32:54.344Z,89.67
2023-05-09T21:35:23.832Z,89.91
2023-05-09T21:37:52.698Z,89.94
2023-05-09T21:40:20.596Z,91.29
2023-05-09T21:42:48.702Z,89.48
2023-05-09T21:45:18.081Z,90.59
2023-05-09T21:47:46.101Z,90.13
2023-05-09T21:50:14.547Z,91.81
2023-05-09T21:52:43.952Z,91.77
2023-05-09T21:55:11.898Z,92.42
2023-05-09T21:57:39.770Z,93.83
2023-05-09T22:00:13.978Z,94.02
2023-05-09T22:02:42.984Z,93.39
2023-05-09T22:05:11.335Z,94.43
2023-05-09T22:07:39.301Z,93.28
2023-05-09T22:10:09.932Z,93.80
2023-05-09T22:12:38.241Z,93.65
2023-05-09T22:15:07.260Z,94.47
2023-05-09T22:17:35.223Z,95.74
2023-05-09T22:20:03.292Z,96.56
2023-05-09T22:22:31.700Z,96.06
2023-05-09T22:24:59.632Z,96.30
2023-05-09T22:27:28.930Z,95.93
2023-05-09T22:29:56.872Z,95.88
2023-05-09T22:32:25.873Z,96.41
2023-05-09T22:34:55.148Z,96.80
2023-05-09T22:37:23.059Z,97.31
2023-05-09T22:39:51.158Z,97.67
2023-05-09T22:42:19.182Z,98.00
2023-05-09T22:44:49.875Z,97.90
2023-05-09T22:47:17.880Z,98.30
2023-05-09T22:49:46.005Z,100.00
2023-05-09T22:52:13.992Z,100.00
2023-05-09T22:54:42.182Z,98.44
2023-05-09T22:57:10.803Z,99.91
2023-05-09T22:59:38.688Z,100.00
2023-05-09T23:02:08.373Z,99.96
2023-05-09T23:04:36.626Z,100.00
2023-05-09T23:07:04.529Z,100.00
2023-05-09T23:09:32.489Z,100.00
2023-05-09T23:12:01.233Z,100.00
2023-05-09T23:14:29.144Z,100.00
2023-05-09T23:16:57.484Z,100.00
2023-05-09T23:19:26.916Z,100.00
2023-05-09T23:21:55.232Z,100.00
2023-05-09T23:24:23.163Z,100.00
2023-05-09T23:26:51.052Z,100.00
2023-05-09T23:29:18.965Z,100.00
2023-05-09T23:31:47.063Z,100.00
2023-05-09T23:34:15.175Z,100.00
2023-05-09T23:36:44.429Z,100.00
2023-05-09T23:39:12.442Z,100.00
2023-05-09T23:41:40.549Z,100.00
2023-05-09T23:44:09.030Z,100.00
2023-05-09T23:46:37.312Z,100.00
2023-05-09T23:49:05.369Z,100.00
2023-05-09T23:51:33.239Z,100.00
2023-05-09T23:54:02.781Z,100.00
2023-05-09T23:56:31.225Z,100.00
2023-05-09T23:58:59.123Z,100.00
